sensor_id;sensor_type;location;lat;lon;timestamp;P1;durP1;ratioP1;P2;durP2;ratioP2
64667;SDS011;51077;42.716;23.344;2024-01-15T00:01:59;135.60;;;71.73;;
64667;SDS011;51077;42.716;23.344;2024-01-15T00:04:24;132.30;;;72.53;;
64667;SDS011;51077;42.716;23.344;2024-01-15T00:06:50;131.87;;;70.67;;
64667;SDS011;51077;42.716;23.344;2024-01-15T00:09:15;135.23;;;72.30;;
64667;SDS011;51077;42.716;23.344;2024-01-15T00:11:41;128.37;;;69.63;;
64667;SDS011;51077;42.716;23.344;2024-01-15T00:14:08;129.65;;;72.03;;
64667;SDS011;51077;42.716;23.344;2024-01-15T00:16:33;134.18;;;71.15;;
64667;SDS011;51077;42.716;23.344;2024-01-15T00:18:59;133.33;;;69.13;;
64667;SDS011;51077;42.716;23.344;2024-01-15T00:21:25;136.40;;;72.87;;
64667;SDS011;51077;42.716;23.344;2024-01-15T00:23:50;130.23;;;69.63;;
64667;SDS011;51077;42.716;23.344;2024-01-15T00:26:15;129.07;;;69.87;;
64667;SDS011;51077;42.716;23.344;2024-01-15T00:28:41;124.60;;;68.00;;
64667;SDS011;51077;42.716;23.344;2024-01-15T00:31:06;120.03;;;64.60;;
64667;SDS011;51077;42.716;23.344;2024-01-15T00:33:32;121.27;;;65.73;;
64667;SDS011;51077;42.716;23.344;2024-01-15T00:35:57;122.60;;;64.03;;
64667;SDS011;51077;42.716;23.344;2024-01-15T00:38:23;120.13;;;63.87;;
64667;SDS011;51077;42.716;23.344;2024-01-15T00:40:48;118.33;;;63.67;;
64667;SDS011;51077;42.716;23.344;2024-01-15T00:43:14;111.90;;;59.13;;
64667;SDS011;51077;42.716;23.344;2024-01-15T00:45:39;114.23;;;59.07;;
64667;SDS011;51077;42.716;23.344;2024-01-15T00:48:05;102.17;;;57.73;;
64667;SDS011;51077;42.716;23.344;2024-01-15T00:50:30;114.93;;;60.80;;
64667;SDS011;51077;42.716;23.344;2024-01-15T00:52:56;117.53;;;61.60;;
64667;SDS011;51077;42.716;23.344;2024-01-15T00:55:21;115.50;;;62.87;;
64667;SDS011;51077;42.716;23.344;2024-01-15T00:57:46;112.30;;;63.27;;
64667;SDS011;51077;42.716;23.344;2024-01-15T01:00:12;113.60;;;61.27;;
64667;SDS011;51077;42.716;23.344;2024-01-15T01:02:37;115.88;;;63.42;;
64667;SDS011;51077;42.716;23.344;2024-01-15T01:05:03;117.27;;;62.63;;
64667;SDS011;51077;42.716;23.344;2024-01-15T01:07:29;113.03;;;60.80;;
64667;SDS011;51077;42.716;23.344;2024-01-15T01:09:54;110.27;;;61.77;;
64667;SDS011;51077;42.716;23.344;2024-01-15T01:12:20;111.25;;;61.13;;
64667;SDS011;51077;42.716;23.344;2024-01-15T01:14:45;120.53;;;63.93;;
64667;SDS011;51077;42.716;23.344;2024-01-15T01:17:11;112.40;;;63.83;;
64667;SDS011;51077;42.716;23.344;2024-01-15T01:19:36;124.57;;;67.57;;
64667;SDS011;51077;42.716;23.344;2024-01-15T01:22:01;111.90;;;61.23;;
64667;SDS011;51077;42.716;23.344;2024-01-15T01:24:27;115.30;;;62.15;;
64667;SDS011;51077;42.716;23.344;2024-01-15T01:26:53;118.40;;;64.87;;
64667;SDS011;51077;42.716;23.344;2024-01-15T01:29:18;112.40;;;62.00;;
64667;SDS011;51077;42.716;23.344;2024-01-15T01:31:44;118.03;;;63.70;;
64667;SDS011;51077;42.716;23.344;2024-01-15T01:34:09;117.28;;;65.20;;
64667;SDS011;51077;42.716;23.344;2024-01-15T01:36:35;120.53;;;64.23;;
64667;SDS011;51077;42.716;23.344;2024-01-15T01:39:01;123.73;;;66.67;;
64667;SDS011;51077;42.716;23.344;2024-01-15T01:41:26;119.57;;;65.85;;
64667;SDS011;51077;42.716;23.344;2024-01-15T01:43:52;125.93;;;65.87;;
64667;SDS011;51077;42.716;23.344;2024-01-15T01:46:18;129.03;;;69.20;;
64667;SDS011;51077;42.716;23.344;2024-01-15T01:48:43;133.80;;;70.20;;
64667;SDS011;51077;42.716;23.344;2024-01-15T01:51:09;122.93;;;66.83;;
64667;SDS011;51077;42.716;23.344;2024-01-15T01:53:35;125.70;;;64.60;;
64667;SDS011;51077;42.716;23.344;2024-01-15T01:56:03;127.82;;;68.57;;
64667;SDS011;51077;42.716;23.344;2024-01-15T01:58:29;128.15;;;66.47;;
64667;SDS011;51077;42.716;23.344;2024-01-15T02:00:56;135.60;;;70.85;;
64667;SDS011;51077;42.716;23.344;2024-01-15T02:03:22;136.18;;;69.60;;
64667;SDS011;51077;42.716;23.344;2024-01-15T02:05:48;143.60;;;67.73;;
64667;SDS011;51077;42.716;23.344;2024-01-15T02:08:14;127.65;;;61.17;;
64667;SDS011;51077;42.716;23.344;2024-01-15T02:10:40;118.53;;;62.03;;
64667;SDS011;51077;42.716;23.344;2024-01-15T02:13:05;114.33;;;60.23;;
64667;SDS011;51077;42.716;23.344;2024-01-15T02:15:31;119.00;;;60.80;;
64667;SDS011;51077;42.716;23.344;2024-01-15T02:20:29;115.10;;;58.08;;
64667;SDS011;51077;42.716;23.344;2024-01-15T02:23:01;109.53;;;57.38;;
64667;SDS011;51077;42.716;23.344;2024-01-15T02:25:45;114.65;;;59.13;;
64667;SDS011;51077;42.716;23.344;2024-01-15T02:28:12;118.93;;;60.13;;
64667;SDS011;51077;42.716;23.344;2024-01-15T02:30:39;130.75;;;62.85;;
64667;SDS011;51077;42.716;23.344;2024-01-15T02:33:06;115.38;;;58.25;;
64667;SDS011;51077;42.716;23.344;2024-01-15T02:35:32;116.90;;;60.97;;
64667;SDS011;51077;42.716;23.344;2024-01-15T02:37:58;112.97;;;58.10;;
64667;SDS011;51077;42.716;23.344;2024-01-15T02:40:23;107.93;;;55.67;;
64667;SDS011;51077;42.716;23.344;2024-01-15T02:42:49;104.33;;;55.10;;
64667;SDS011;51077;42.716;23.344;2024-01-15T02:45:14;103.97;;;52.20;;
64667;SDS011;51077;42.716;23.344;2024-01-15T02:47:40;99.50;;;52.30;;
64667;SDS011;51077;42.716;23.344;2024-01-15T02:50:05;107.60;;;51.67;;
64667;SDS011;51077;42.716;23.344;2024-01-15T02:52:31;92.22;;;49.17;;
64667;SDS011;51077;42.716;23.344;2024-01-15T02:54:56;96.27;;;49.97;;
64667;SDS011;51077;42.716;23.344;2024-01-15T02:57:22;89.30;;;48.10;;
64667;SDS011;51077;42.716;23.344;2024-01-15T02:59:47;84.77;;;47.00;;
64667;SDS011;51077;42.716;23.344;2024-01-15T03:02:12;85.20;;;44.27;;
64667;SDS011;51077;42.716;23.344;2024-01-15T03:04:42;82.63;;;45.67;;
64667;SDS011;51077;42.716;23.344;2024-01-15T03:07:08;88.45;;;45.38;;
64667;SDS011;51077;42.716;23.344;2024-01-15T03:09:33;77.17;;;42.33;;
64667;SDS011;51077;42.716;23.344;2024-01-15T03:11:59;78.63;;;42.43;;
64667;SDS011;51077;42.716;23.344;2024-01-15T03:14:24;86.37;;;44.83;;
64667;SDS011;51077;42.716;23.344;2024-01-15T03:16:51;80.20;;;42.50;;
64667;SDS011;51077;42.716;23.344;2024-01-15T03:19:16;81.20;;;43.33;;
64667;SDS011;51077;42.716;23.344;2024-01-15T03:21:42;75.60;;;41.13;;
64667;SDS011;51077;42.716;23.344;2024-01-15T03:24:07;80.37;;;40.53;;
64667;SDS011;51077;42.716;23.344;2024-01-15T03:26:32;72.23;;;39.93;;
64667;SDS011;51077;42.716;23.344;2024-01-15T03:28:58;71.93;;;40.50;;
64667;SDS011;51077;42.716;23.344;2024-01-15T03:31:23;69.50;;;38.53;;
64667;SDS011;51077;42.716;23.344;2024-01-15T03:33:48;70.53;;;38.33;;
64667;SDS011;51077;42.716;23.344;2024-01-15T03:36:14;67.43;;;37.47;;
64667;SDS011;51077;42.716;23.344;2024-01-15T03:38:40;66.83;;;36.07;;
64667;SDS011;51077;42.716;23.344;2024-01-15T03:41:06;60.25;;;34.28;;
64667;SDS011;51077;42.716;23.344;2024-01-15T03:43:32;69.50;;;36.53;;
64667;SDS011;51077;42.716;23.344;2024-01-15T03:45:57;60.53;;;34.70;;
64667;SDS011;51077;42.716;23.344;2024-01-15T03:48:22;67.73;;;35.43;;
64667;SDS011;51077;42.716;23.344;2024-01-15T03:50:48;68.93;;;35.53;;
64667;SDS011;51077;42.716;23.344;2024-01-15T03:53:13;59.20;;;34.53;;
64667;SDS011;51077;42.716;23.344;2024-01-15T03:55:38;65.67;;;33.70;;
64667;SDS011;51077;42.716;23.344;2024-01-15T03:58:04;61.77;;;33.23;;
64667;SDS011;51077;42.716;23.344;2024-01-15T04:00:29;57.70;;;32.10;;
64667;SDS011;51077;42.716;23.344;2024-01-15T04:02:54;61.97;;;32.07;;
64667;SDS011;51077;42.716;23.344;2024-01-15T04:05:20;57.40;;;31.73;;
64667;SDS011;51077;42.716;23.344;2024-01-15T04:07:45;57.10;;;30.33;;
64667;SDS011;51077;42.716;23.344;2024-01-15T04:10:11;56.43;;;30.00;;
64667;SDS011;51077;42.716;23.344;2024-01-15T04:12:36;57.90;;;31.33;;
64667;SDS011;51077;42.716;23.344;2024-01-15T04:15:01;53.87;;;29.53;;
64667;SDS011;51077;42.716;23.344;2024-01-15T04:17:27;52.63;;;29.27;;
64667;SDS011;51077;42.716;23.344;2024-01-15T04:19:53;52.03;;;29.30;;
64667;SDS011;51077;42.716;23.344;2024-01-15T04:22:18;49.87;;;28.00;;
64667;SDS011;51077;42.716;23.344;2024-01-15T04:24:44;46.07;;;27.63;;
64667;SDS011;51077;42.716;23.344;2024-01-15T04:27:09;57.67;;;29.73;;
64667;SDS011;51077;42.716;23.344;2024-01-15T04:29:37;50.57;;;28.57;;
64667;SDS011;51077;42.716;23.344;2024-01-15T04:32:03;58.75;;;30.17;;
64667;SDS011;51077;42.716;23.344;2024-01-15T04:34:28;55.03;;;29.67;;
64667;SDS011;51077;42.716;23.344;2024-01-15T04:36:54;56.70;;;31.80;;
64667;SDS011;51077;42.716;23.344;2024-01-15T04:39:19;56.63;;;29.80;;
64667;SDS011;51077;42.716;23.344;2024-01-15T04:41:44;56.13;;;30.50;;
64667;SDS011;51077;42.716;23.344;2024-01-15T04:44:10;48.27;;;27.40;;
64667;SDS011;51077;42.716;23.344;2024-01-15T04:46:35;61.30;;;30.37;;
64667;SDS011;51077;42.716;23.344;2024-01-15T04:49:01;57.93;;;33.10;;
64667;SDS011;51077;42.716;23.344;2024-01-15T04:51:27;56.40;;;31.43;;
64667;SDS011;51077;42.716;23.344;2024-01-15T04:53:52;55.53;;;31.73;;
64667;SDS011;51077;42.716;23.344;2024-01-15T04:56:17;60.80;;;32.30;;
64667;SDS011;51077;42.716;23.344;2024-01-15T04:58:43;55.80;;;30.63;;
64667;SDS011;51077;42.716;23.344;2024-01-15T05:01:08;56.80;;;31.60;;
64667;SDS011;51077;42.716;23.344;2024-01-15T05:03:35;62.50;;;31.27;;
64667;SDS011;51077;42.716;23.344;2024-01-15T05:06:00;53.27;;;31.07;;
64667;SDS011;51077;42.716;23.344;2024-01-15T05:08:26;56.97;;;32.40;;
64667;SDS011;51077;42.716;23.344;2024-01-15T05:10:51;62.80;;;33.53;;
64667;SDS011;51077;42.716;23.344;2024-01-15T05:13:16;62.67;;;33.83;;
64667;SDS011;51077;42.716;23.344;2024-01-15T05:15:42;63.53;;;32.70;;
64667;SDS011;51077;42.716;23.344;2024-01-15T05:18:08;66.20;;;34.92;;
64667;SDS011;51077;42.716;23.344;2024-01-15T05:20:33;63.37;;;33.70;;
64667;SDS011;51077;42.716;23.344;2024-01-15T05:22:59;64.77;;;33.83;;
64667;SDS011;51077;42.716;23.344;2024-01-15T05:25:24;65.17;;;34.30;;
64667;SDS011;51077;42.716;23.344;2024-01-15T05:27:50;65.67;;;34.47;;
64667;SDS011;51077;42.716;23.344;2024-01-15T05:30:15;67.37;;;37.33;;
64667;SDS011;51077;42.716;23.344;2024-01-15T05:32:41;63.92;;;35.95;;
64667;SDS011;51077;42.716;23.344;2024-01-15T05:35:07;63.70;;;36.07;;
64667;SDS011;51077;42.716;23.344;2024-01-15T05:37:32;71.33;;;35.10;;
64667;SDS011;51077;42.716;23.344;2024-01-15T05:39:57;66.93;;;35.97;;
64667;SDS011;51077;42.716;23.344;2024-01-15T05:42:23;63.70;;;34.70;;
64667;SDS011;51077;42.716;23.344;2024-01-15T05:44:48;62.10;;;35.23;;
64667;SDS011;51077;42.716;23.344;2024-01-15T05:47:14;62.33;;;34.93;;
64667;SDS011;51077;42.716;23.344;2024-01-15T05:49:39;63.30;;;34.57;;
64667;SDS011;51077;42.716;23.344;2024-01-15T05:52:05;67.37;;;37.63;;
64667;SDS011;51077;42.716;23.344;2024-01-15T05:54:31;73.37;;;38.73;;
64667;SDS011;51077;42.716;23.344;2024-01-15T05:56:56;68.87;;;37.87;;
64667;SDS011;51077;42.716;23.344;2024-01-15T05:59:22;70.20;;;38.27;;
64667;SDS011;51077;42.716;23.344;2024-01-15T06:01:47;61.27;;;36.07;;
64667;SDS011;51077;42.716;23.344;2024-01-15T06:04:12;65.43;;;35.57;;
64667;SDS011;51077;42.716;23.344;2024-01-15T06:06:38;64.03;;;36.70;;
64667;SDS011;51077;42.716;23.344;2024-01-15T06:09:03;62.67;;;35.60;;
64667;SDS011;51077;42.716;23.344;2024-01-15T06:11:33;59.58;;;33.22;;
64667;SDS011;51077;42.716;23.344;2024-01-15T06:13:58;55.60;;;33.60;;
64667;SDS011;51077;42.716;23.344;2024-01-15T06:16:25;63.70;;;35.63;;
64667;SDS011;51077;42.716;23.344;2024-01-15T06:18:51;58.17;;;32.70;;
64667;SDS011;51077;42.716;23.344;2024-01-15T06:21:16;60.70;;;33.53;;
64667;SDS011;51077;42.716;23.344;2024-01-15T06:23:42;60.60;;;33.37;;
64667;SDS011;51077;42.716;23.344;2024-01-15T06:26:07;53.80;;;32.50;;
64667;SDS011;51077;42.716;23.344;2024-01-15T06:28:33;60.63;;;33.47;;
64667;SDS011;51077;42.716;23.344;2024-01-15T06:30:58;59.60;;;32.70;;
64667;SDS011;51077;42.716;23.344;2024-01-15T06:33:24;55.13;;;32.20;;
64667;SDS011;51077;42.716;23.344;2024-01-15T06:35:50;56.27;;;31.10;;
64667;SDS011;51077;42.716;23.344;2024-01-15T06:38:15;59.03;;;31.60;;
64667;SDS011;51077;42.716;23.344;2024-01-15T06:40:41;54.33;;;31.33;;
64667;SDS011;51077;42.716;23.344;2024-01-15T06:43:13;57.75;;;32.08;;
64667;SDS011;51077;42.716;23.344;2024-01-15T06:45:40;63.65;;;34.85;;
64667;SDS011;51077;42.716;23.344;2024-01-15T06:48:05;55.30;;;32.50;;
64667;SDS011;51077;42.716;23.344;2024-01-15T06:50:32;58.65;;;32.25;;
64667;SDS011;51077;42.716;23.344;2024-01-15T06:52:57;57.90;;;33.40;;
64667;SDS011;51077;42.716;23.344;2024-01-15T06:55:23;59.80;;;34.93;;
64667;SDS011;51077;42.716;23.344;2024-01-15T06:57:48;62.40;;;36.77;;
64667;SDS011;51077;42.716;23.344;2024-01-15T07:00:14;61.77;;;35.57;;
64667;SDS011;51077;42.716;23.344;2024-01-15T07:02:39;62.65;;;34.28;;
64667;SDS011;51077;42.716;23.344;2024-01-15T07:05:05;58.63;;;36.00;;
64667;SDS011;51077;42.716;23.344;2024-01-15T07:07:31;64.50;;;36.17;;
64667;SDS011;51077;42.716;23.344;2024-01-15T07:09:56;63.40;;;36.37;;
64667;SDS011;51077;42.716;23.344;2024-01-15T07:12:22;64.23;;;37.40;;
64667;SDS011;51077;42.716;23.344;2024-01-15T07:14:48;67.13;;;39.03;;
64667;SDS011;51077;42.716;23.344;2024-01-15T07:17:13;67.10;;;39.93;;
64667;SDS011;51077;42.716;23.344;2024-01-15T07:19:39;65.80;;;39.03;;
64667;SDS011;51077;42.716;23.344;2024-01-15T07:22:04;74.33;;;41.50;;
64667;SDS011;51077;42.716;23.344;2024-01-15T07:24:29;70.70;;;41.10;;
64667;SDS011;51077;42.716;23.344;2024-01-15T07:26:55;68.27;;;40.47;;
64667;SDS011;51077;42.716;23.344;2024-01-15T07:29:20;73.97;;;42.47;;
64667;SDS011;51077;42.716;23.344;2024-01-15T07:31:49;72.33;;;42.67;;
64667;SDS011;51077;42.716;23.344;2024-01-15T07:34:15;77.45;;;44.92;;
64667;SDS011;51077;42.716;23.344;2024-01-15T07:36:42;84.47;;;47.40;;
64667;SDS011;51077;42.716;23.344;2024-01-15T07:39:07;84.77;;;47.83;;
64667;SDS011;51077;42.716;23.344;2024-01-15T07:41:32;84.20;;;47.33;;
64667;SDS011;51077;42.716;23.344;2024-01-15T07:43:58;83.33;;;46.87;;
64667;SDS011;51077;42.716;23.344;2024-01-15T07:46:23;85.67;;;50.33;;
64667;SDS011;51077;42.716;23.344;2024-01-15T07:48:49;90.85;;;50.90;;
64667;SDS011;51077;42.716;23.344;2024-01-15T07:51:21;85.45;;;50.58;;
64667;SDS011;51077;42.716;23.344;2024-01-15T07:53:46;82.07;;;50.55;;
64667;SDS011;51077;42.716;23.344;2024-01-15T07:56:12;85.13;;;48.47;;
64667;SDS011;51077;42.716;23.344;2024-01-15T07:58:37;91.73;;;50.87;;
64667;SDS011;51077;42.716;23.344;2024-01-15T08:01:03;89.33;;;49.20;;
64667;SDS011;51077;42.716;23.344;2024-01-15T08:03:28;89.03;;;50.33;;
64667;SDS011;51077;42.716;23.344;2024-01-15T08:05:54;84.67;;;49.63;;
64667;SDS011;51077;42.716;23.344;2024-01-15T08:08:20;88.78;;;50.20;;
64667;SDS011;51077;42.716;23.344;2024-01-15T08:10:49;87.80;;;48.15;;
64667;SDS011;51077;42.716;23.344;2024-01-15T08:13:14;83.43;;;47.23;;
64667;SDS011;51077;42.716;23.344;2024-01-15T08:15:40;80.27;;;47.33;;
64667;SDS011;51077;42.716;23.344;2024-01-15T08:18:06;79.07;;;46.97;;
64667;SDS011;51077;42.716;23.344;2024-01-15T08:20:32;78.37;;;47.60;;
64667;SDS011;51077;42.716;23.344;2024-01-15T08:22:57;81.43;;;46.70;;
64667;SDS011;51077;42.716;23.344;2024-01-15T08:25:22;78.90;;;47.57;;
64667;SDS011;51077;42.716;23.344;2024-01-15T08:27:48;82.10;;;45.80;;
64667;SDS011;51077;42.716;23.344;2024-01-15T08:30:13;85.23;;;46.53;;
64667;SDS011;51077;42.716;23.344;2024-01-15T08:32:39;78.80;;;46.97;;
64667;SDS011;51077;42.716;23.344;2024-01-15T08:35:07;85.72;;;48.22;;
64667;SDS011;51077;42.716;23.344;2024-01-15T08:37:33;78.35;;;45.50;;
64667;SDS011;51077;42.716;23.344;2024-01-15T08:39:59;77.03;;;46.60;;
64667;SDS011;51077;42.716;23.344;2024-01-15T08:42:24;77.20;;;45.70;;
64667;SDS011;51077;42.716;23.344;2024-01-15T08:44:50;76.60;;;47.33;;
64667;SDS011;51077;42.716;23.344;2024-01-15T08:47:15;78.50;;;46.73;;
64667;SDS011;51077;42.716;23.344;2024-01-15T08:49:41;75.65;;;45.80;;
64667;SDS011;51077;42.716;23.344;2024-01-15T08:52:08;77.60;;;47.33;;
64667;SDS011;51077;42.716;23.344;2024-01-15T08:54:34;77.97;;;44.22;;
64667;SDS011;51077;42.716;23.344;2024-01-15T08:56:59;76.53;;;45.20;;
64667;SDS011;51077;42.716;23.344;2024-01-15T08:59:25;76.53;;;46.53;;
64667;SDS011;51077;42.716;23.344;2024-01-15T09:01:54;73.22;;;44.25;;
64667;SDS011;51077;42.716;23.344;2024-01-15T09:04:22;72.95;;;41.50;;
64667;SDS011;51077;42.716;23.344;2024-01-15T09:06:47;70.22;;;41.85;;
64667;SDS011;51077;42.716;23.344;2024-01-15T09:09:13;67.77;;;42.23;;
64667;SDS011;51077;42.716;23.344;2024-01-15T09:11:42;75.18;;;43.45;;
64667;SDS011;51077;42.716;23.344;2024-01-15T09:14:07;64.73;;;39.90;;
64667;SDS011;51077;42.716;23.344;2024-01-15T09:16:33;68.55;;;42.25;;
64667;SDS011;51077;42.716;23.344;2024-01-15T09:18:59;70.83;;;42.43;;
64667;SDS011;51077;42.716;23.344;2024-01-15T09:21:24;71.17;;;43.03;;
64667;SDS011;51077;42.716;23.344;2024-01-15T09:23:50;70.53;;;43.00;;
64667;SDS011;51077;42.716;23.344;2024-01-15T09:26:16;68.53;;;41.45;;
64667;SDS011;51077;42.716;23.344;2024-01-15T09:28:42;68.97;;;42.40;;
64667;SDS011;51077;42.716;23.344;2024-01-15T09:31:07;66.47;;;40.30;;
64667;SDS011;51077;42.716;23.344;2024-01-15T09:33:33;70.03;;;41.77;;
64667;SDS011;51077;42.716;23.344;2024-01-15T09:36:01;69.63;;;41.93;;
64667;SDS011;51077;42.716;23.344;2024-01-15T09:38:28;67.00;;;42.17;;
64667;SDS011;51077;42.716;23.344;2024-01-15T09:40:54;62.53;;;40.55;;
64667;SDS011;51077;42.716;23.344;2024-01-15T09:43:20;66.80;;;40.87;;
64667;SDS011;51077;42.716;23.344;2024-01-15T09:45:47;59.20;;;37.90;;
64667;SDS011;51077;42.716;23.344;2024-01-15T09:48:14;58.80;;;38.95;;
64667;SDS011;51077;42.716;23.344;2024-01-15T09:50:39;58.97;;;38.80;;
64667;SDS011;51077;42.716;23.344;2024-01-15T09:53:05;65.27;;;40.93;;
64667;SDS011;51077;42.716;23.344;2024-01-15T09:55:30;65.57;;;40.97;;
64667;SDS011;51077;42.716;23.344;2024-01-15T09:57:57;64.97;;;40.95;;
64667;SDS011;51077;42.716;23.344;2024-01-15T10:00:25;59.05;;;38.15;;
64667;SDS011;51077;42.716;23.344;2024-01-15T10:02:51;62.97;;;38.45;;
64667;SDS011;51077;42.716;23.344;2024-01-15T10:05:16;57.57;;;36.57;;
64667;SDS011;51077;42.716;23.344;2024-01-15T10:07:42;58.37;;;38.77;;
64667;SDS011;51077;42.716;23.344;2024-01-15T10:10:08;61.88;;;39.97;;
64667;SDS011;51077;42.716;23.344;2024-01-15T10:12:36;66.75;;;41.28;;
64667;SDS011;51077;42.716;23.344;2024-01-15T10:15:03;58.80;;;38.58;;
64667;SDS011;51077;42.716;23.344;2024-01-15T10:17:29;65.13;;;39.15;;
64667;SDS011;51077;42.716;23.344;2024-01-15T10:19:56;57.45;;;38.30;;
64667;SDS011;51077;42.716;23.344;2024-01-15T10:22:21;63.15;;;38.70;;
64667;SDS011;51077;42.716;23.344;2024-01-15T10:24:48;57.03;;;37.97;;
64667;SDS011;51077;42.716;23.344;2024-01-15T10:27:14;57.05;;;36.72;;
64667;SDS011;51077;42.716;23.344;2024-01-15T10:29:40;57.47;;;37.67;;
64667;SDS011;51077;42.716;23.344;2024-01-15T10:32:07;57.78;;;36.10;;
64667;SDS011;51077;42.716;23.344;2024-01-15T10:34:34;54.33;;;35.83;;
64667;SDS011;51077;42.716;23.344;2024-01-15T10:37:04;52.60;;;34.20;;
64667;SDS011;51077;42.716;23.344;2024-01-15T10:39:30;52.43;;;35.33;;
64667;SDS011;51077;42.716;23.344;2024-01-15T10:41:55;59.90;;;34.87;;
64667;SDS011;51077;42.716;23.344;2024-01-15T10:44:21;53.03;;;34.37;;
64667;SDS011;51077;42.716;23.344;2024-01-15T10:46:46;56.60;;;36.87;;
64667;SDS011;51077;42.716;23.344;2024-01-15T10:49:12;51.90;;;34.83;;
64667;SDS011;51077;42.716;23.344;2024-01-15T10:51:38;55.37;;;36.20;;
64667;SDS011;51077;42.716;23.344;2024-01-15T10:54:04;50.63;;;36.10;;
64667;SDS011;51077;42.716;23.344;2024-01-15T10:56:31;52.97;;;36.00;;
64667;SDS011;51077;42.716;23.344;2024-01-15T10:59:00;50.85;;;34.42;;
64667;SDS011;51077;42.716;23.344;2024-01-15T11:01:25;52.67;;;36.00;;
64667;SDS011;51077;42.716;23.344;2024-01-15T11:03:51;45.87;;;33.83;;
64667;SDS011;51077;42.716;23.344;2024-01-15T11:06:17;50.00;;;35.13;;
64667;SDS011;51077;42.716;23.344;2024-01-15T11:08:49;47.70;;;33.22;;
64667;SDS011;51077;42.716;23.344;2024-01-15T11:11:16;49.13;;;33.72;;
64667;SDS011;51077;42.716;23.344;2024-01-15T11:13:42;48.70;;;33.88;;
64667;SDS011;51077;42.716;23.344;2024-01-15T11:16:13;50.05;;;32.25;;
64667;SDS011;51077;42.716;23.344;2024-01-15T11:18:40;46.13;;;31.73;;
64667;SDS011;51077;42.716;23.344;2024-01-15T11:21:26;48.45;;;32.78;;
64667;SDS011;51077;42.716;23.344;2024-01-15T11:29:07;50.15;;;31.52;;
64667;SDS011;51077;42.716;23.344;2024-01-15T11:34:03;47.95;;;31.08;;
64667;SDS011;51077;42.716;23.344;2024-01-15T11:41:52;47.63;;;31.88;;
64667;SDS011;51077;42.716;23.344;2024-01-15T11:44:21;43.92;;;29.30;;
64667;SDS011;51077;42.716;23.344;2024-01-15T11:46:57;45.45;;;30.05;;
64667;SDS011;51077;42.716;23.344;2024-01-15T11:50:06;42.65;;;29.20;;
64667;SDS011;51077;42.716;23.344;2024-01-15T11:52:47;45.20;;;27.75;;
64667;SDS011;51077;42.716;23.344;2024-01-15T11:55:35;42.30;;;27.35;;
64667;SDS011;51077;42.716;23.344;2024-01-15T11:58:06;49.70;;;28.85;;
64667;SDS011;51077;42.716;23.344;2024-01-15T12:00:34;47.78;;;30.35;;
64667;SDS011;51077;42.716;23.344;2024-01-15T12:03:05;43.17;;;28.92;;
64667;SDS011;51077;42.716;23.344;2024-01-15T12:05:31;44.33;;;27.23;;
64667;SDS011;51077;42.716;23.344;2024-01-15T12:07:56;43.17;;;28.60;;
64667;SDS011;51077;42.716;23.344;2024-01-15T12:10:22;42.23;;;27.73;;
64667;SDS011;51077;42.716;23.344;2024-01-15T12:12:57;40.00;;;26.40;;
64667;SDS011;51077;42.716;23.344;2024-01-15T12:15:24;39.80;;;26.10;;
64667;SDS011;51077;42.716;23.344;2024-01-15T12:17:51;41.83;;;26.20;;
64667;SDS011;51077;42.716;23.344;2024-01-15T12:20:17;40.67;;;27.03;;
64667;SDS011;51077;42.716;23.344;2024-01-15T12:22:43;42.72;;;26.77;;
64667;SDS011;51077;42.716;23.344;2024-01-15T12:25:09;43.00;;;26.13;;
64667;SDS011;51077;42.716;23.344;2024-01-15T12:27:35;40.80;;;27.25;;
64667;SDS011;51077;42.716;23.344;2024-01-15T12:30:00;42.67;;;27.20;;
64667;SDS011;51077;42.716;23.344;2024-01-15T12:32:26;41.63;;;27.03;;
64667;SDS011;51077;42.716;23.344;2024-01-15T12:34:51;44.07;;;28.03;;
64667;SDS011;51077;42.716;23.344;2024-01-15T12:37:20;40.53;;;27.00;;
64667;SDS011;51077;42.716;23.344;2024-01-15T12:39:46;44.35;;;27.17;;
64667;SDS011;51077;42.716;23.344;2024-01-15T12:42:16;47.33;;;28.27;;
64667;SDS011;51077;42.716;23.344;2024-01-15T12:44:42;48.55;;;28.90;;
64667;SDS011;51077;42.716;23.344;2024-01-15T12:47:09;46.80;;;28.85;;
64667;SDS011;51077;42.716;23.344;2024-01-15T12:49:38;44.97;;;28.20;;
64667;SDS011;51077;42.716;23.344;2024-01-15T12:52:07;47.58;;;27.80;;
64667;SDS011;51077;42.716;23.344;2024-01-15T12:54:33;47.03;;;26.45;;
64667;SDS011;51077;42.716;23.344;2024-01-15T12:56:59;42.63;;;27.47;;
64667;SDS011;51077;42.716;23.344;2024-01-15T12:59:24;44.40;;;27.80;;
64667;SDS011;51077;42.716;23.344;2024-01-15T13:01:50;43.80;;;26.77;;
64667;SDS011;51077;42.716;23.344;2024-01-15T13:04:22;44.00;;;25.57;;
64667;SDS011;51077;42.716;23.344;2024-01-15T13:06:49;42.85;;;27.20;;
64667;SDS011;51077;42.716;23.344;2024-01-15T13:09:17;46.30;;;26.17;;
64667;SDS011;51077;42.716;23.344;2024-01-15T13:11:45;45.63;;;24.67;;
64667;SDS011;51077;42.716;23.344;2024-01-15T13:14:11;39.03;;;24.70;;
64667;SDS011;51077;42.716;23.344;2024-01-15T13:16:38;40.83;;;24.50;;
64667;SDS011;51077;42.716;23.344;2024-01-15T13:19:04;40.40;;;25.48;;
64667;SDS011;51077;42.716;23.344;2024-01-15T13:21:31;38.45;;;24.95;;
64667;SDS011;51077;42.716;23.344;2024-01-15T13:23:57;42.90;;;25.43;;
64667;SDS011;51077;42.716;23.344;2024-01-15T13:26:22;44.10;;;25.33;;
64667;SDS011;51077;42.716;23.344;2024-01-15T13:28:47;38.13;;;24.43;;
64667;SDS011;51077;42.716;23.344;2024-01-15T13:31:13;40.25;;;24.83;;
64667;SDS011;51077;42.716;23.344;2024-01-15T13:33:39;43.17;;;26.65;;
64667;SDS011;51077;42.716;23.344;2024-01-15T13:36:05;37.83;;;25.63;;
64667;SDS011;51077;42.716;23.344;2024-01-15T13:38:35;41.85;;;24.83;;
64667;SDS011;51077;42.716;23.344;2024-01-15T13:41:06;42.38;;;27.05;;
64667;SDS011;51077;42.716;23.344;2024-01-15T13:43:31;41.67;;;27.55;;
64667;SDS011;51077;42.716;23.344;2024-01-15T13:45:58;41.25;;;25.95;;
64667;SDS011;51077;42.716;23.344;2024-01-15T13:48:23;45.05;;;25.52;;
64667;SDS011;51077;42.716;23.344;2024-01-15T13:50:49;43.63;;;25.60;;
64667;SDS011;51077;42.716;23.344;2024-01-15T13:53:16;39.72;;;24.77;;
64667;SDS011;51077;42.716;23.344;2024-01-15T13:55:41;43.80;;;25.17;;
64667;SDS011;51077;42.716;23.344;2024-01-15T13:58:07;42.17;;;25.80;;
64667;SDS011;51077;42.716;23.344;2024-01-15T14:00:32;40.30;;;25.50;;
64667;SDS011;51077;42.716;23.344;2024-01-15T14:02:58;41.42;;;25.38;;
64667;SDS011;51077;42.716;23.344;2024-01-15T14:05:24;37.97;;;25.47;;
64667;SDS011;51077;42.716;23.344;2024-01-15T14:07:49;57.30;;;31.03;;
64667;SDS011;51077;42.716;23.344;2024-01-15T14:10:15;57.63;;;31.97;;
64667;SDS011;51077;42.716;23.344;2024-01-15T14:12:41;52.42;;;31.13;;
64667;SDS011;51077;42.716;23.344;2024-01-15T14:15:06;49.77;;;29.07;;
64667;SDS011;51077;42.716;23.344;2024-01-15T14:17:32;57.08;;;31.38;;